KAKR/AKR METAR and TAF weather

Enter ICAO airport designator
Station Type Date Time Source
KAKR METAR 2019/06/26 09:54 UTC NOAA

KAKR 260954Z AUTO 22009KT 10SM FEW080 22/16 A3005 RMK AO2 SLP166 T02170156


Station Type Date Time Source
KAKR Decoded METAR 2019/06/26 09:54 UTC NOAA

AKRON FULTON INTERNATIONAL, OH, United States (KAKR) 41-02N 081-28W 363M
Jun 26, 2019 - 05:54 AM EDT / 2019.06.26 0954 UTC
Wind: from the SW (220 degrees) at 10 MPH (9 KT):0
Visibility: 10 mile(s):0
Sky conditions: mostly clear
Temperature: 71.1 F (21.7 C)
Dew Point: 60.1 F (15.6 C)
Relative Humidity: 68%
Pressure (altimeter): 30.05 in. Hg (1017 hPa)
ob: KAKR 260954Z AUTO 22009KT 10SM FEW080 22/16 A3005 RMK AO2 SLP166 T02170156
cycle: 10

Station Type Date Time Source
KAKR TAF UTC NOAA

Error!

Example: see airport list